createdAt,value
2022-11-12T00:00:53.838Z,102538.41
2022-11-12T00:03:21.209Z,102536.69
2022-11-12T00:05:49.437Z,102542.22
2022-11-12T00:08:16.600Z,102539.72
2022-11-12T00:10:43.816Z,102536.38
2022-11-12T00:13:10.217Z,102530.00
2022-11-12T00:15:36.718Z,102536.47
2022-11-12T00:18:03.409Z,102533.59
2022-11-12T00:20:29.862Z,102539.31
2022-11-12T00:22:56.439Z,102537.97
2022-11-12T00:25:22.894Z,102535.88
2022-11-12T00:27:49.424Z,102527.28
2022-11-12T00:30:16.240Z,102528.25
2022-11-12T00:32:42.733Z,102536.44
2022-11-12T00:35:13.486Z,102534.50
2022-11-12T00:37:40.724Z,102527.31
2022-11-12T00:40:08.033Z,102533.84
2022-11-12T00:42:34.679Z,102537.91
2022-11-12T00:45:01.193Z,102541.50
2022-11-12T00:47:27.650Z,102542.88
2022-11-12T00:49:54.192Z,102539.63
2022-11-12T00:52:20.747Z,102543.81
2022-11-12T00:54:47.158Z,102541.84
2022-11-12T00:57:13.577Z,102540.41
2022-11-12T00:59:39.973Z,102540.56
2022-11-12T01:02:06.477Z,102536.38
2022-11-12T01:04:33.813Z,102536.16
2022-11-12T01:07:00.282Z,102531.16
2022-11-12T01:09:26.771Z,102530.56
2022-11-12T01:11:53.168Z,102533.59
2022-11-12T01:14:19.589Z,102537.00
2022-11-12T01:16:46.002Z,102528.75
2022-11-12T01:19:13.725Z,102533.75
2022-11-12T01:21:43.114Z,102526.34
2022-11-12T01:24:10.719Z,102526.19
2022-11-12T01:26:38.005Z,102525.78
2022-11-12T01:29:05.088Z,102532.03
2022-11-12T01:31:36.418Z,102529.97
2022-11-12T01:34:06.006Z,102539.06
2022-11-12T01:36:39.375Z,102536.41
2022-11-12T01:39:08.974Z,102537.53
2022-11-12T01:41:38.447Z,102547.34
2022-11-12T01:44:08.836Z,102546.47
2022-11-12T01:46:43.769Z,102542.34
2022-11-12T01:49:16.020Z,102549.03
2022-11-12T01:51:46.953Z,102540.09
2022-11-12T01:54:18.109Z,102546.44
2022-11-12T01:56:44.907Z,102551.28
2022-11-12T01:59:19.779Z,102542.84
2022-11-12T02:01:46.208Z,102544.84
2022-11-12T02:04:12.847Z,102551.25
2022-11-12T02:07:22.516Z,102542.13
2022-11-12T02:09:49.022Z,102547.78
2022-11-12T02:12:35.809Z,102553.53
2022-11-12T02:15:03.671Z,102541.50
2022-11-12T02:17:30.095Z,102552.78
2022-11-12T02:19:59.483Z,102546.56
2022-11-12T02:22:25.889Z,102548.69
2022-11-12T02:24:52.289Z,102549.13
2022-11-12T02:27:19.005Z,102554.53
2022-11-12T02:29:48.211Z,102545.97
2022-11-12T02:32:14.735Z,102552.47
2022-11-12T02:34:41.509Z,102553.84
2022-11-12T02:37:07.996Z,102555.03
2022-11-12T02:39:34.441Z,102556.84
2022-11-12T02:42:00.852Z,102558.50
2022-11-12T02:44:27.377Z,102559.50
2022-11-12T02:46:53.777Z,102570.59
2022-11-12T02:49:20.169Z,102572.81
2022-11-12T02:51:46.631Z,102576.84
2022-11-12T02:54:13.065Z,102571.00
2022-11-12T02:56:39.598Z,102581.44
2022-11-12T02:59:06.006Z,102584.00
2022-11-12T03:01:32.474Z,102585.97
2022-11-12T03:03:59.520Z,102582.09
2022-11-12T03:06:25.961Z,102585.22
2022-11-12T03:08:52.340Z,102587.63
2022-11-12T03:11:18.758Z,102593.75
2022-11-12T03:13:45.303Z,102592.94
2022-11-12T03:16:11.738Z,102587.47
2022-11-12T03:18:38.141Z,102597.31
2022-11-12T03:21:05.099Z,102585.81
2022-11-12T03:23:31.940Z,102602.75
2022-11-12T03:25:58.892Z,102584.25
2022-11-12T03:28:25.731Z,102595.41
2022-11-12T03:30:57.502Z,102588.91
2022-11-12T03:33:23.839Z,102592.91
2022-11-12T03:35:50.403Z,102591.81
2022-11-12T03:38:16.845Z,102589.22
2022-11-12T03:40:43.228Z,102594.72
2022-11-12T03:43:09.775Z,102592.84
2022-11-12T03:45:36.462Z,102594.28
2022-11-12T03:48:03.044Z,102592.69
2022-11-12T03:50:30.349Z,102594.50
2022-11-12T03:52:58.573Z,102588.22
2022-11-12T03:55:27.516Z,102591.81
2022-11-12T03:57:55.133Z,102593.53
2022-11-12T04:00:23.026Z,102595.41
2022-11-12T04:02:49.780Z,102595.41
2022-11-12T04:05:34.976Z,102595.72
2022-11-12T04:08:24.350Z,102591.66
2022-11-12T04:10:51.502Z,102599.13
2022-11-12T04:13:30.049Z,102586.63
2022-11-12T04:16:25.518Z,102591.66
2022-11-12T04:19:13.261Z,102587.19
2022-11-12T04:21:51.500Z,102597.50
2022-11-12T04:24:39.913Z,102598.69
2022-11-12T04:27:07.712Z,102603.75
2022-11-12T04:29:52.570Z,102601.66
2022-11-12T04:32:19.000Z,102601.34
2022-11-12T04:34:45.484Z,102604.19
2022-11-12T04:37:11.941Z,102614.66
2022-11-12T04:39:38.346Z,102607.38
2022-11-12T04:42:23.940Z,102598.44
2022-11-12T04:45:16.513Z,102602.75
2022-11-12T04:47:46.296Z,102611.53
2022-11-12T04:50:17.883Z,102604.88
2022-11-12T04:52:44.526Z,102604.81
2022-11-12T04:55:11.576Z,102613.66
2022-11-12T04:57:38.490Z,102611.06
2022-11-12T05:00:05.796Z,102609.50
2022-11-12T05:02:32.225Z,102611.41
2022-11-12T05:04:58.636Z,102614.81
2022-11-12T05:07:25.072Z,102625.72
2022-11-12T05:09:51.487Z,102613.91
2022-11-12T05:12:18.041Z,102616.16
2022-11-12T05:14:44.427Z,102614.66
2022-11-12T05:17:10.899Z,102615.53
2022-11-12T05:19:37.371Z,102618.81
2022-11-12T05:22:06.945Z,102624.34
2022-11-12T05:24:42.630Z,102627.81
2022-11-12T05:27:20.803Z,102638.31
2022-11-12T05:29:47.656Z,102639.97
2022-11-12T05:32:16.059Z,102645.28
2022-11-12T05:34:42.760Z,102640.88
2022-11-12T05:37:10.645Z,102630.72
2022-11-12T05:39:37.408Z,102629.53
2022-11-12T05:42:13.461Z,102629.78
2022-11-12T05:44:41.192Z,102628.81
2022-11-12T05:47:07.702Z,102626.16
2022-11-12T05:49:34.101Z,102632.59
2022-11-12T05:52:00.575Z,102636.91
2022-11-12T05:54:26.952Z,102638.75
2022-11-12T05:56:53.726Z,102635.78
2022-11-12T05:59:20.521Z,102638.75
2022-11-12T06:01:46.951Z,102634.78
2022-11-12T06:04:14.790Z,102641.66
2022-11-12T06:06:42.436Z,102639.75
2022-11-12T06:09:09.816Z,102637.03
2022-11-12T06:11:37.207Z,102639.75
2022-11-12T06:14:04.566Z,102637.34
2022-11-12T06:16:31.729Z,102638.34
2022-11-12T06:18:58.581Z,102642.59
2022-11-12T06:21:27.246Z,102641.97
2022-11-12T06:23:59.632Z,102643.84
2022-11-12T06:26:28.497Z,102649.88
2022-11-12T06:28:55.682Z,102640.84
2022-11-12T06:31:22.959Z,102635.84
2022-11-12T06:33:50.188Z,102644.59
2022-11-12T06:36:18.856Z,102647.69
2022-11-12T06:38:45.740Z,102649.47
2022-11-12T06:41:13.755Z,102657.25
2022-11-12T06:43:40.967Z,102659.91
2022-11-12T06:46:12.710Z,102668.78
2022-11-12T06:48:39.446Z,102672.16
2022-11-12T06:51:07.948Z,102660.66
2022-11-12T06:53:34.424Z,102680.19
2022-11-12T06:56:05.928Z,102680.06
2022-11-12T06:58:32.551Z,102678.34
2022-11-12T07:01:12.146Z,102676.38
2022-11-12T07:03:40.123Z,102686.78
2022-11-12T07:06:10.033Z,102680.56
2022-11-12T07:08:36.999Z,102674.91
2022-11-12T07:11:03.996Z,102684.78
2022-11-12T07:13:32.498Z,102693.50
2022-11-12T07:16:00.497Z,102685.94
2022-11-12T07:18:28.445Z,102693.22
2022-11-12T07:21:04.135Z,102687.59
2022-11-12T07:23:32.554Z,102698.16
2022-11-12T07:26:04.183Z,102696.06
2022-11-12T07:28:30.688Z,102698.69
2022-11-12T07:30:59.328Z,102707.56
2022-11-12T07:33:27.083Z,102712.81
2022-11-12T07:36:04.856Z,102699.50
2022-11-12T07:38:33.142Z,102711.72
2022-11-12T07:41:05.614Z,102717.69
2022-11-12T07:43:36.797Z,102701.72
2022-11-12T07:46:10.237Z,102710.06
2022-11-12T07:48:38.387Z,102712.19
2022-11-12T07:51:13.347Z,102716.66
2022-11-12T07:53:41.194Z,102718.00
2022-11-12T07:56:07.784Z,102714.06
2022-11-12T07:58:34.625Z,102709.06
2022-11-12T08:01:23.541Z,102718.13
2022-11-12T08:03:49.976Z,102711.25
2022-11-12T08:06:16.368Z,102712.41
2022-11-12T08:08:42.771Z,102715.28
2022-11-12T08:11:09.394Z,102714.03
2022-11-12T08:13:35.829Z,102719.94
2022-11-12T08:16:02.417Z,102729.59
2022-11-12T08:18:29.808Z,102721.13
2022-11-12T08:21:03.856Z,102720.53
2022-11-12T08:23:30.650Z,102717.94
2022-11-12T08:26:07.113Z,102722.41
2022-11-12T08:28:35.687Z,102711.59
2022-11-12T08:31:07.125Z,102703.75
2022-11-12T08:33:34.703Z,102719.38
2022-11-12T08:36:09.805Z,102713.06
2022-11-12T08:38:36.309Z,102710.31
2022-11-12T08:41:04.672Z,102716.06
2022-11-12T08:43:31.088Z,102724.22
2022-11-12T08:45:59.204Z,102713.16
2022-11-12T08:48:26.799Z,102721.31
2022-11-12T08:50:53.790Z,102718.28
2022-11-12T08:53:22.154Z,102718.31
2022-11-12T08:55:48.580Z,102710.84
2022-11-12T08:58:15.012Z,102708.06
2022-11-12T09:00:43.473Z,102717.63
2022-11-12T09:03:15.351Z,102708.78
2022-11-12T09:05:42.508Z,102719.91
2022-11-12T09:08:12.341Z,102722.69
2022-11-12T09:10:39.446Z,102722.84
2022-11-12T09:13:06.330Z,102718.19
2022-11-12T09:15:37.842Z,102713.78
2022-11-12T09:18:08.083Z,102718.81
2022-11-12T09:20:34.692Z,102725.97
2022-11-12T09:23:08.093Z,102720.72
2022-11-12T09:25:35.194Z,102727.16
2022-11-12T09:28:13.027Z,102731.22
2022-11-12T09:30:43.589Z,102733.34
2022-11-12T09:33:10.028Z,102736.88
2022-11-12T09:35:36.411Z,102719.28
2022-11-12T09:38:02.866Z,102723.09
2022-11-12T09:40:45.582Z,102734.63
2022-11-12T09:43:34.101Z,102739.88
2022-11-12T09:46:26.568Z,102734.53
2022-11-12T09:49:21.313Z,102727.31
2022-11-12T09:52:23.668Z,102726.59
2022-11-12T09:55:01.234Z,102736.09
2022-11-12T09:57:27.787Z,102737.03
2022-11-12T09:59:54.184Z,102729.09
2022-11-12T10:02:29.546Z,102714.72
2022-11-12T10:05:12.283Z,102720.00
2022-11-12T10:08:19.198Z,102723.13
2022-11-12T10:10:52.963Z,102715.03
2022-11-12T10:13:31.604Z,102707.81
2022-11-12T10:16:40.009Z,102700.06
2022-11-12T10:19:18.433Z,102708.91
2022-11-12T10:21:56.548Z,102723.50
2022-11-12T10:24:24.176Z,102697.84
2022-11-12T10:26:52.213Z,102706.06
2022-11-12T10:29:36.229Z,102717.53
2022-11-12T10:32:03.395Z,102725.41
2022-11-12T10:34:31.211Z,102707.47
2022-11-12T10:37:11.205Z,102700.13
2022-11-12T10:39:42.936Z,102708.88
2022-11-12T10:42:16.569Z,102723.63
2022-11-12T10:44:44.173Z,102696.31
2022-11-12T10:47:25.211Z,102671.41
2022-11-12T10:50:10.225Z,102703.84
2022-11-12T10:52:37.229Z,102714.81
2022-11-12T10:55:25.388Z,102696.91
2022-11-12T10:58:13.226Z,102697.78
2022-11-12T11:01:07.302Z,102713.19
2022-11-12T11:03:36.973Z,102698.59
2022-11-12T11:06:07.594Z,102702.88
2022-11-12T11:08:46.193Z,102704.50
2022-11-12T11:11:31.996Z,102704.47
2022-11-12T11:14:40.034Z,102700.78
2022-11-12T11:17:15.565Z,102698.81
2022-11-12T11:19:42.794Z,102696.31
2022-11-12T11:22:47.906Z,102687.69
2022-11-12T11:25:35.666Z,102700.56
2022-11-12T11:28:23.212Z,102693.84
2022-11-12T11:31:30.857Z,102677.34
2022-11-12T11:34:21.783Z,102688.41
2022-11-12T11:37:03.107Z,102690.72
2022-11-12T11:39:45.427Z,102672.84
2022-11-12T11:42:23.625Z,102675.38
2022-11-12T11:44:55.672Z,102679.75
2022-11-12T11:47:59.898Z,102673.78
2022-11-12T11:50:30.926Z,102669.53
2022-11-12T11:53:22.209Z,102672.44
2022-11-12T11:56:02.198Z,102682.13
2022-11-12T11:58:43.592Z,102669.59
2022-11-12T12:01:34.912Z,102678.09
2022-11-12T12:04:07.410Z,102688.03
2022-11-12T12:06:45.732Z,102690.75
2022-11-12T12:09:43.804Z,102679.97
2022-11-12T12:12:32.055Z,102667.50
2022-11-12T12:15:22.356Z,102679.25
2022-11-12T12:18:11.049Z,102658.47
2022-11-12T12:20:53.237Z,102653.97
2022-11-12T12:23:29.097Z,102672.00
2022-11-12T12:26:00.369Z,102660.22
2022-11-12T12:28:34.977Z,102650.84
2022-11-12T12:31:07.372Z,102647.56
2022-11-12T12:33:44.013Z,102651.09
2022-11-12T12:36:18.085Z,102648.91
2022-11-12T12:39:03.026Z,102651.97
2022-11-12T12:41:37.265Z,102655.59
2022-11-12T12:44:06.539Z,102657.53
2022-11-12T12:46:40.575Z,102641.03
2022-11-12T12:49:11.593Z,102642.81
2022-11-12T12:51:38.016Z,102633.69
2022-11-12T12:54:04.625Z,102628.00
2022-11-12T12:56:31.043Z,102621.22
2022-11-12T12:59:03.457Z,102620.91
2022-11-12T13:01:34.276Z,102624.91
2022-11-12T13:04:08.802Z,102614.44
2022-11-12T13:06:45.411Z,102607.63
2022-11-12T13:09:14.883Z,102608.31
2022-11-12T13:12:00.913Z,102607.88
2022-11-12T13:14:36.336Z,102608.03
2022-11-12T13:17:04.027Z,102606.47
2022-11-12T13:19:39.528Z,102607.91
2022-11-12T13:22:18.001Z,102611.94
2022-11-12T13:25:20.164Z,102614.28
2022-11-12T13:27:47.058Z,102616.34
2022-11-12T13:30:13.445Z,102620.59
2022-11-12T13:32:48.708Z,102629.28
2022-11-12T13:35:22.319Z,102621.84
2022-11-12T13:37:54.905Z,102621.72
2022-11-12T13:40:33.651Z,102619.66
2022-11-12T13:43:19.887Z,102626.59
2022-11-12T13:45:57.664Z,102627.09
2022-11-12T13:48:30.854Z,102632.44
2022-11-12T13:51:03.253Z,102628.34
2022-11-12T13:53:32.941Z,102621.50
2022-11-12T13:55:59.734Z,102623.47
2022-11-12T13:58:31.585Z,102620.88
2022-11-12T14:01:00.706Z,102623.22
2022-11-12T14:03:32.472Z,102619.66
2022-11-12T14:06:02.335Z,102620.53
2022-11-12T14:09:10.082Z,102616.56
2022-11-12T14:12:13.646Z,102611.84
2022-11-12T14:15:13.789Z,102626.16
2022-11-12T14:18:12.411Z,102623.56
2022-11-12T14:20:40.232Z,102620.75
2022-11-12T14:23:24.248Z,102620.09
2022-11-12T14:25:56.519Z,102619.63
2022-11-12T14:28:41.303Z,102627.91
2022-11-12T14:31:14.530Z,102610.00
2022-11-12T14:33:41.011Z,102613.38
2022-11-12T14:36:14.998Z,102619.00
2022-11-12T14:38:48.482Z,102611.53
2022-11-12T14:41:22.487Z,102610.88
2022-11-12T14:44:11.413Z,102607.78
2022-11-12T14:46:50.924Z,102608.50
2022-11-12T14:49:20.071Z,102606.03
2022-11-12T14:51:56.082Z,102594.13
2022-11-12T14:54:36.559Z,102606.63
2022-11-12T14:57:04.351Z,102603.31
2022-11-12T14:59:31.707Z,102601.38
2022-11-12T15:02:28.659Z,102600.97
2022-11-12T15:05:04.443Z,102600.88
2022-11-12T15:07:34.923Z,102601.94
2022-11-12T15:10:31.413Z,102599.50
2022-11-12T15:13:03.936Z,102601.94
2022-11-12T15:15:31.770Z,102600.03
2022-11-12T15:18:07.577Z,102596.38
2022-11-12T15:20:34.120Z,102602.59
2022-11-12T15:23:00.961Z,102597.34
2022-11-12T15:25:31.608Z,102594.66
2022-11-12T15:28:33.551Z,102589.81
2022-11-12T15:31:18.642Z,102593.91
2022-11-12T15:33:45.090Z,102597.28
2022-11-12T15:36:20.952Z,102598.78
2022-11-12T15:38:50.655Z,102609.25
2022-11-12T15:41:30.139Z,102596.03
2022-11-12T15:43:56.833Z,102598.19
2022-11-12T15:46:23.280Z,102600.34
2022-11-12T15:48:55.557Z,102600.09
2022-11-12T15:51:22.550Z,102606.81
2022-11-12T15:53:49.072Z,102603.53
2022-11-12T15:56:19.167Z,102607.03
2022-11-12T15:58:45.642Z,102606.94
2022-11-12T16:01:12.501Z,102611.53
2022-11-12T16:03:39.180Z,102607.66
2022-11-12T16:06:09.307Z,102612.38
2022-11-12T16:08:35.963Z,102615.41
2022-11-12T16:11:02.499Z,102612.72
2022-11-12T16:13:33.192Z,102611.31
2022-11-12T16:16:04.225Z,102612.72
2022-11-12T16:18:30.622Z,102609.53
2022-11-12T16:20:57.002Z,102615.22
2022-11-12T16:23:23.451Z,102606.94
2022-11-12T16:25:49.915Z,102615.22
2022-11-12T16:28:18.257Z,102610.06
2022-11-12T16:30:46.525Z,102611.56
2022-11-12T16:33:13.618Z,102614.38
2022-11-12T16:35:40.348Z,102610.06
2022-11-12T16:38:14.395Z,102616.41
2022-11-12T16:40:41.267Z,102621.22
2022-11-12T16:43:07.788Z,102624.31
2022-11-12T16:45:37.977Z,102614.16
2022-11-12T16:48:12.271Z,102615.84
2022-11-12T16:50:39.011Z,102606.00
2022-11-12T16:53:05.419Z,102605.38
2022-11-12T16:55:31.848Z,102612.50
2022-11-12T16:57:58.283Z,102614.91
2022-11-12T17:00:24.816Z,102615.97
2022-11-12T17:02:53.590Z,102615.31
2022-11-12T17:05:25.715Z,102606.16
2022-11-12T17:07:57.178Z,102608.41
2022-11-12T17:10:24.004Z,102607.09
2022-11-12T17:12:52.210Z,102611.91
2022-11-12T17:15:19.067Z,102615.94
2022-11-12T17:17:45.505Z,102616.78
2022-11-12T17:20:12.005Z,102609.78
2022-11-12T17:22:38.460Z,102602.06
2022-11-12T17:25:06.316Z,102597.78
2022-11-12T17:27:32.727Z,102596.34
2022-11-12T17:29:59.150Z,102602.88
2022-11-12T17:32:25.650Z,102596.88
2022-11-12T17:34:52.083Z,102595.50
2022-11-12T17:37:18.595Z,102601.41
2022-11-12T17:39:45.047Z,102602.44
2022-11-12T17:42:11.503Z,102595.78
2022-11-12T17:44:37.943Z,102605.75
2022-11-12T17:47:04.386Z,102597.72
2022-11-12T17:49:30.937Z,102606.84
2022-11-12T17:51:57.363Z,102607.59
2022-11-12T17:54:24.117Z,102606.41
2022-11-12T17:56:50.533Z,102608.75
2022-11-12T17:59:16.994Z,102608.41
2022-11-12T18:01:43.520Z,102606.03
2022-11-12T18:04:10.462Z,102609.00
2022-11-12T18:06:37.066Z,102606.47
2022-11-12T18:09:08.849Z,102613.72
2022-11-12T18:11:43.053Z,102605.03
2022-11-12T18:14:09.817Z,102597.00
2022-11-12T18:16:36.700Z,102600.13
2022-11-12T18:19:03.417Z,102610.25
2022-11-12T18:21:29.831Z,102615.94
2022-11-12T18:23:56.423Z,102604.47
2022-11-12T18:26:22.890Z,102613.94
2022-11-12T18:28:56.389Z,102608.34
2022-11-12T18:31:24.519Z,102609.38
2022-11-12T18:33:51.655Z,102608.47
2022-11-12T18:36:20.914Z,102603.38
2022-11-12T18:38:50.048Z,102600.78
2022-11-12T18:41:18.284Z,102598.75
2022-11-12T18:43:44.733Z,102604.88
2022-11-12T18:46:11.692Z,102607.28
2022-11-12T18:48:38.970Z,102606.97
2022-11-12T18:51:08.890Z,102610.81
2022-11-12T18:53:36.831Z,102605.88
2022-11-12T18:56:08.598Z,102614.75
2022-11-12T18:58:35.677Z,102611.97
2022-11-12T19:01:08.675Z,102611.63
2022-11-12T19:03:35.992Z,102610.47
2022-11-12T19:06:05.216Z,102608.19
2022-11-12T19:08:31.686Z,102618.28
2022-11-12T19:10:59.576Z,102612.41
2022-11-12T19:13:26.885Z,102607.44
2022-11-12T19:15:54.091Z,102606.88
2022-11-12T19:18:20.733Z,102610.22
2022-11-12T19:20:48.545Z,102612.13
2022-11-12T19:23:15.293Z,102617.47
2022-11-12T19:25:41.972Z,102616.81
2022-11-12T19:28:08.476Z,102608.91
2022-11-12T19:30:34.882Z,102612.13
2022-11-12T19:33:01.272Z,102610.91
2022-11-12T19:35:27.684Z,102615.06
2022-11-12T19:37:54.120Z,102617.59
2022-11-12T19:40:20.497Z,102621.97
2022-11-12T19:42:48.006Z,102624.47
2022-11-12T19:45:14.512Z,102620.41
2022-11-12T19:47:40.903Z,102615.75
2022-11-12T19:50:07.951Z,102621.84
2022-11-12T19:52:34.374Z,102625.66
2022-11-12T19:55:01.009Z,102628.00
2022-11-12T19:57:29.008Z,102625.16
2022-11-12T19:59:55.494Z,102624.78
2022-11-12T20:02:21.898Z,102622.84
2022-11-12T20:04:48.291Z,102628.78
2022-11-12T20:07:14.749Z,102617.25
2022-11-12T20:09:41.316Z,102619.53
2022-11-12T20:12:07.924Z,102621.16
2022-11-12T20:14:34.558Z,102625.03
2022-11-12T20:17:01.026Z,102624.94
2022-11-12T20:19:27.825Z,102621.50
2022-11-12T20:21:54.494Z,102628.81
2022-11-12T20:24:20.975Z,102624.00
2022-11-12T20:26:47.417Z,102620.66
2022-11-12T20:29:13.831Z,102622.78
2022-11-12T20:31:41.903Z,102617.69
2022-11-12T20:34:08.395Z,102619.06
2022-11-12T20:36:34.805Z,102625.84
2022-11-12T20:39:02.104Z,102625.44
2022-11-12T20:41:28.636Z,102621.81
2022-11-12T20:44:00.269Z,102616.41
2022-11-12T20:46:27.107Z,102617.56
2022-11-12T20:48:56.403Z,102626.00
2022-11-12T20:51:26.025Z,102624.13
2022-11-12T20:53:58.857Z,102616.03
2022-11-12T20:56:28.105Z,102619.53
2022-11-12T20:58:54.513Z,102619.50
2022-11-12T21:01:23.089Z,102609.00
2022-11-12T21:03:49.752Z,102620.50
2022-11-12T21:06:19.289Z,102617.44
2022-11-12T21:08:45.784Z,102612.28
2022-11-12T21:11:14.564Z,102613.44
2022-11-12T21:13:41.704Z,102613.94
2022-11-12T21:16:09.861Z,102609.31
2022-11-12T21:18:37.086Z,102613.88
2022-11-12T21:21:07.899Z,102603.47
2022-11-12T21:23:37.010Z,102607.03
2022-11-12T21:26:09.971Z,102602.72
2022-11-12T21:28:38.187Z,102601.59
2022-11-12T21:31:06.592Z,102599.03
2022-11-12T21:33:33.198Z,102598.16
2022-11-12T21:35:59.634Z,102595.47
2022-11-12T21:38:27.671Z,102593.72
2022-11-12T21:41:07.924Z,102602.50
2022-11-12T21:43:38.609Z,102594.69
2022-11-12T21:46:19.431Z,102590.59
2022-11-12T21:48:49.906Z,102588.03
2022-11-12T21:51:21.114Z,102593.91
2022-11-12T21:53:47.664Z,102579.88
2022-11-12T21:56:16.740Z,102584.38
2022-11-12T21:58:44.173Z,102587.59
2022-11-12T22:01:17.731Z,102589.09
2022-11-12T22:03:44.864Z,102583.75
2022-11-12T22:06:12.011Z,102589.41
2022-11-12T22:08:39.309Z,102586.81
2022-11-12T22:11:08.372Z,102581.66
2022-11-12T22:13:35.627Z,102579.50
2022-11-12T22:16:25.772Z,102578.47
2022-11-12T22:18:54.395Z,102564.72
2022-11-12T22:21:23.253Z,102573.72
2022-11-12T22:23:49.901Z,102573.47
2022-11-12T22:26:20.600Z,102566.09
2022-11-12T22:28:47.283Z,102571.25
2022-11-12T22:31:15.950Z,102561.88
2022-11-12T22:33:42.473Z,102560.16
2022-11-12T22:36:20.925Z,102549.69
2022-11-12T22:38:50.126Z,102553.34
2022-11-12T22:41:22.130Z,102557.06
2022-11-12T22:43:56.803Z,102546.53
2022-11-12T22:46:25.874Z,102552.63
2022-11-12T22:48:52.504Z,102545.44
2022-11-12T22:51:21.731Z,102552.53
2022-11-12T22:53:48.325Z,102543.22
2022-11-12T22:56:16.432Z,102550.50
2022-11-12T22:58:45.289Z,102542.41
2022-11-12T23:01:29.728Z,102546.59
2022-11-12T23:03:58.641Z,102542.84
2022-11-12T23:06:25.656Z,102552.59
2022-11-12T23:08:56.537Z,102547.59
2022-11-12T23:11:26.100Z,102546.53
2022-11-12T23:13:54.011Z,102542.41
2022-11-12T23:16:26.149Z,102534.59
2022-11-12T23:18:53.133Z,102541.69
2022-11-12T23:21:23.077Z,102536.78
2022-11-12T23:23:49.932Z,102537.50
2022-11-12T23:26:19.300Z,102534.91
2022-11-12T23:28:45.867Z,102530.91
2022-11-12T23:31:24.185Z,102537.09
2022-11-12T23:33:53.033Z,102545.59
2022-11-12T23:36:20.602Z,102539.69
2022-11-12T23:38:47.488Z,102535.31
2022-11-12T23:41:16.910Z,102531.50
2022-11-12T23:43:43.475Z,102531.31
2022-11-12T23:46:10.773Z,102536.75
2022-11-12T23:48:37.322Z,102528.06
2022-11-12T23:51:14.934Z,102525.31
2022-11-12T23:53:41.410Z,102523.69
2022-11-12T23:56:09.825Z,102522.06
2022-11-12T23:58:38.580Z,102513.66
